createdAt,value
2023-05-02T00:02:08.705Z,14.29
2023-05-02T00:05:12.326Z,14.50
2023-05-02T00:08:18.234Z,14.43
2023-05-02T00:11:22.920Z,14.33
2023-05-02T00:14:26.486Z,14.20
2023-05-02T00:17:29.608Z,14.21
2023-05-02T00:20:33.111Z,14.11
2023-05-02T00:23:36.672Z,14.12
2023-05-02T00:26:41.142Z,13.95
2023-05-02T00:29:44.670Z,13.89
2023-05-02T00:32:48.078Z,13.79
2023-05-02T00:35:51.317Z,13.71
2023-05-02T00:38:54.738Z,13.68
2023-05-02T00:41:59.842Z,13.70
2023-05-02T00:45:06.807Z,13.77
2023-05-02T00:48:12.160Z,13.75
2023-05-02T00:51:15.301Z,13.91
2023-05-02T00:54:18.557Z,14.02
2023-05-02T00:57:23.079Z,13.96
2023-05-02T01:00:34.006Z,13.93
2023-05-02T01:03:48.005Z,14.06
2023-05-02T01:07:14.066Z,14.03
2023-05-02T01:10:31.424Z,14.02
2023-05-02T01:13:38.813Z,14.04
2023-05-02T01:16:44.673Z,13.80
2023-05-02T01:19:54.976Z,13.81
2023-05-02T01:23:06.020Z,13.81
2023-05-02T01:26:18.818Z,13.87
2023-05-02T01:29:24.477Z,13.77
2023-05-02T01:32:31.147Z,13.62
2023-05-02T01:35:36.792Z,13.64
2023-05-02T01:38:40.992Z,13.59
2023-05-02T01:41:46.892Z,13.60
2023-05-02T01:44:55.620Z,13.58
2023-05-02T01:47:59.685Z,13.64
2023-05-02T01:51:04.760Z,13.59
2023-05-02T01:54:10.121Z,13.52
2023-05-02T01:57:14.225Z,13.38
2023-05-02T02:00:20.749Z,13.36
2023-05-02T02:03:25.553Z,13.31
2023-05-02T02:06:30.033Z,13.28
2023-05-02T02:09:33.191Z,13.16
2023-05-02T02:12:43.549Z,13.14
2023-05-02T02:15:52.235Z,13.14
2023-05-02T02:18:57.592Z,13.14
2023-05-02T02:22:04.177Z,13.11
2023-05-02T02:25:11.796Z,13.05
2023-05-02T02:28:14.967Z,12.99
2023-05-02T02:31:19.413Z,12.93
2023-05-02T02:34:23.014Z,12.88
2023-05-02T02:37:33.000Z,12.79
2023-05-02T02:40:46.045Z,12.70
2023-05-02T02:44:02.375Z,12.64
2023-05-02T02:47:14.278Z,12.60
2023-05-02T02:50:24.376Z,12.53
2023-05-02T02:53:35.988Z,12.46
2023-05-02T02:56:42.964Z,12.34
2023-05-02T02:59:54.543Z,12.36
2023-05-02T03:02:59.016Z,12.24
2023-05-02T03:06:02.594Z,12.13
2023-05-02T03:09:05.850Z,12.09
2023-05-02T03:12:08.825Z,12.10
2023-05-02T03:15:37.878Z,12.01
2023-05-02T03:18:42.849Z,12.00
2023-05-02T03:21:46.091Z,11.92
2023-05-02T03:24:54.236Z,11.84
2023-05-02T03:27:58.441Z,11.80
2023-05-02T03:31:01.768Z,11.78
2023-05-02T03:34:09.672Z,11.77
2023-05-02T03:37:14.548Z,11.66
2023-05-02T03:40:21.652Z,11.59
2023-05-02T03:43:24.905Z,11.54
2023-05-02T03:46:28.827Z,11.52
2023-05-02T03:49:36.100Z,11.50
2023-05-02T03:52:39.778Z,11.46
2023-05-02T03:55:43.251Z,11.50
2023-05-02T03:58:53.912Z,11.50
2023-05-02T04:02:00.633Z,11.48
2023-05-02T04:05:14.937Z,11.45
2023-05-02T04:08:18.416Z,11.39
2023-05-02T04:11:22.065Z,11.36
2023-05-02T04:14:25.363Z,11.40
2023-05-02T04:17:30.392Z,11.42
2023-05-02T04:20:35.076Z,11.48
2023-05-02T04:23:38.301Z,11.44
2023-05-02T04:26:42.176Z,11.44
2023-05-02T04:29:51.944Z,11.41
2023-05-02T04:32:56.000Z,11.39
2023-05-02T04:36:02.202Z,11.40
2023-05-02T04:39:07.926Z,11.41
2023-05-02T04:42:13.345Z,11.40
2023-05-02T04:45:23.774Z,11.44
2023-05-02T04:48:27.611Z,11.48
2023-05-02T04:51:34.513Z,11.53
2023-05-02T04:54:37.615Z,11.58
2023-05-02T04:57:40.969Z,11.58
2023-05-02T05:00:47.252Z,11.64
2023-05-02T05:03:50.468Z,11.71
2023-05-02T05:06:56.026Z,11.78
2023-05-02T05:10:00.691Z,11.78
2023-05-02T05:13:08.512Z,11.82
2023-05-02T05:16:12.083Z,11.81
2023-05-02T05:19:15.558Z,11.81
2023-05-02T05:22:20.250Z,11.86
2023-05-02T05:25:23.683Z,11.90
2023-05-02T05:28:28.070Z,11.83
2023-05-02T05:31:31.793Z,11.84
2023-05-02T05:34:39.118Z,11.82
2023-05-02T05:37:44.597Z,11.85
2023-05-02T05:40:51.124Z,11.93
2023-05-02T05:49:04.774Z,12.02
2023-05-02T05:52:08.212Z,12.07
2023-05-02T05:55:13.647Z,12.06
2023-05-02T05:58:17.100Z,12.17
2023-05-02T06:01:21.285Z,12.12
2023-05-02T06:04:24.581Z,12.23
2023-05-02T06:07:29.619Z,12.33
2023-05-02T06:10:34.247Z,12.41
2023-05-02T06:13:37.416Z,12.40
2023-05-02T06:16:40.651Z,12.55
2023-05-02T06:19:43.758Z,12.57
2023-05-02T06:22:47.006Z,12.53
2023-05-02T06:25:51.350Z,12.66
2023-05-02T06:28:55.818Z,12.75
2023-05-02T06:31:59.785Z,12.78
2023-05-02T06:35:02.916Z,12.88
2023-05-02T06:38:06.089Z,12.95
2023-05-02T06:41:15.855Z,13.05
2023-05-02T06:44:22.722Z,13.28
2023-05-02T06:47:26.345Z,13.50
2023-05-02T06:50:30.914Z,13.68
2023-05-02T06:53:34.258Z,13.56
2023-05-02T06:56:38.616Z,13.59
2023-05-02T06:59:41.706Z,13.66
2023-05-02T07:02:45.469Z,13.84
2023-05-02T07:05:48.570Z,13.80
2023-05-02T07:08:51.690Z,13.44
2023-05-02T07:11:56.065Z,13.12
2023-05-02T07:14:59.074Z,13.31
2023-05-02T07:18:02.198Z,13.23
2023-05-02T07:21:05.556Z,13.35
2023-05-02T07:24:08.580Z,13.42
2023-05-02T07:27:14.162Z,13.56
2023-05-02T07:30:17.235Z,13.76
2023-05-02T07:33:20.282Z,13.77
2023-05-02T07:36:23.342Z,14.14
2023-05-02T07:39:26.848Z,13.92
2023-05-02T07:42:31.726Z,13.62
2023-05-02T07:45:35.349Z,13.82
2023-05-02T07:48:39.055Z,13.97
2023-05-02T07:51:42.549Z,13.88
2023-05-02T07:54:45.614Z,13.64
2023-05-02T07:57:49.929Z,13.52
2023-05-02T08:00:52.983Z,13.59
2023-05-02T08:03:56.368Z,13.59
2023-05-02T08:07:00.814Z,13.62
2023-05-02T08:10:04.437Z,13.65
2023-05-02T08:13:09.072Z,13.71
2023-05-02T08:16:12.760Z,13.81
2023-05-02T08:19:16.646Z,13.76
2023-05-02T08:22:19.597Z,13.80
2023-05-02T08:25:24.900Z,13.88
2023-05-02T08:28:29.908Z,13.89
2023-05-02T08:31:33.477Z,14.00
2023-05-02T08:34:36.737Z,14.01
2023-05-02T08:37:40.575Z,14.04
2023-05-02T08:40:43.583Z,14.14
2023-05-02T08:43:48.374Z,14.21
2023-05-02T08:46:53.483Z,14.03
2023-05-02T08:49:58.205Z,14.11
2023-05-02T08:53:01.631Z,13.98
2023-05-02T08:56:05.381Z,14.05
2023-05-02T08:59:09.710Z,13.99
2023-05-02T09:02:42.291Z,14.01
2023-05-02T09:05:47.648Z,14.14
2023-05-02T09:08:53.024Z,14.16
2023-05-02T09:11:56.012Z,14.20
2023-05-02T09:15:14.213Z,14.03
2023-05-02T09:18:21.562Z,14.09
2023-05-02T09:21:26.719Z,14.18
2023-05-02T09:24:30.154Z,14.20
2023-05-02T09:27:51.092Z,14.18
2023-05-02T09:31:08.763Z,14.30
2023-05-02T09:34:14.043Z,14.37
2023-05-02T09:37:35.997Z,14.35
2023-05-02T09:40:39.275Z,14.33
2023-05-02T09:43:43.441Z,14.13
2023-05-02T09:46:49.607Z,13.96
2023-05-02T09:49:52.824Z,13.80
2023-05-02T09:53:03.737Z,13.69
2023-05-02T09:56:07.809Z,13.64
2023-05-02T09:59:14.952Z,13.59
2023-05-02T10:02:20.297Z,13.69
2023-05-02T10:05:23.617Z,13.92
2023-05-02T10:08:28.469Z,14.02
2023-05-02T10:11:33.636Z,14.07
2023-05-02T10:14:42.430Z,14.17
2023-05-02T10:17:50.622Z,14.26
2023-05-02T10:21:00.029Z,14.27
2023-05-02T10:24:03.581Z,14.43
2023-05-02T10:27:06.959Z,14.37
2023-05-02T10:30:11.583Z,14.15
2023-05-02T10:33:18.980Z,13.95
2023-05-02T10:36:24.033Z,13.85
2023-05-02T10:39:28.238Z,13.80
2023-05-02T10:42:32.201Z,13.46
2023-05-02T10:45:37.463Z,13.69
2023-05-02T10:48:41.952Z,13.76
2023-05-02T10:51:45.016Z,13.73
2023-05-02T10:54:48.087Z,13.28
2023-05-02T10:58:23.340Z,13.36
2023-05-02T11:01:42.877Z,13.27
2023-05-02T11:05:04.939Z,13.17
2023-05-02T11:08:31.650Z,13.02
2023-05-02T11:11:43.120Z,12.89
2023-05-02T11:14:50.090Z,12.58
2023-05-02T11:18:03.557Z,12.66
2023-05-02T11:21:29.630Z,12.42
2023-05-02T11:24:39.966Z,12.10
2023-05-02T11:27:44.581Z,11.89
2023-05-02T11:30:57.425Z,11.86
2023-05-02T11:34:02.900Z,11.82
2023-05-02T11:37:14.449Z,11.89
2023-05-02T11:40:20.019Z,12.39
2023-05-02T11:43:29.277Z,12.49
2023-05-02T11:46:34.105Z,12.51
2023-05-02T11:49:38.419Z,12.42
2023-05-02T11:52:44.535Z,12.37
2023-05-02T11:55:49.390Z,12.69
2023-05-02T11:59:03.513Z,12.88
2023-05-02T12:02:07.773Z,12.66
2023-05-02T12:05:13.012Z,12.53
2023-05-02T12:08:22.697Z,12.66
2023-05-02T12:11:28.647Z,12.98
2023-05-02T12:14:33.475Z,13.17
2023-05-02T12:17:40.975Z,12.80
2023-05-02T12:20:44.953Z,12.66
2023-05-02T12:23:49.883Z,12.33
2023-05-02T12:27:13.767Z,12.35
2023-05-02T12:30:27.488Z,12.41
2023-05-02T12:33:30.588Z,12.57
2023-05-02T12:36:34.378Z,12.54
2023-05-02T12:39:40.825Z,12.88
2023-05-02T12:42:44.748Z,12.63
2023-05-02T12:45:49.583Z,12.87
2023-05-02T12:49:03.788Z,12.92
2023-05-02T12:52:06.783Z,13.22
2023-05-02T12:55:24.641Z,13.77
2023-05-02T12:58:28.573Z,14.30
2023-05-02T13:01:32.413Z,14.08
2023-05-02T13:04:37.268Z,14.19
2023-05-02T13:07:40.369Z,14.79
2023-05-02T13:10:44.906Z,14.94
2023-05-02T13:13:47.922Z,14.65
2023-05-02T13:16:53.461Z,15.12
2023-05-02T13:20:01.480Z,14.73
2023-05-02T13:23:06.820Z,13.98
2023-05-02T13:26:12.088Z,13.98
2023-05-02T13:29:15.173Z,13.49
2023-05-02T13:32:18.612Z,13.05
2023-05-02T13:35:21.808Z,13.28
2023-05-02T13:38:24.897Z,13.78
2023-05-02T13:41:30.953Z,14.54
2023-05-02T13:44:34.158Z,13.80
2023-05-02T13:47:38.765Z,13.63
2023-05-02T13:50:42.598Z,13.22
2023-05-02T13:53:45.732Z,13.12
2023-05-02T13:56:50.052Z,13.19
2023-05-02T13:59:53.032Z,12.91
2023-05-02T14:02:56.194Z,12.94
2023-05-02T14:05:59.630Z,13.17
2023-05-02T14:09:02.870Z,13.92
2023-05-02T14:12:10.247Z,13.41
2023-05-02T14:15:13.723Z,13.02
2023-05-02T14:18:17.306Z,13.02
2023-05-02T14:21:20.848Z,13.27
2023-05-02T14:24:23.901Z,12.90
2023-05-02T14:27:28.243Z,12.77
2023-05-02T14:30:32.135Z,12.73
2023-05-02T14:33:35.577Z,13.33
2023-05-02T14:36:38.597Z,13.05
2023-05-02T14:39:42.559Z,12.84
2023-05-02T14:42:46.890Z,12.50
2023-05-02T14:45:50.330Z,12.54
2023-05-02T14:48:53.310Z,12.40
2023-05-02T14:51:57.822Z,12.21
2023-05-02T14:55:01.903Z,12.26
2023-05-02T14:58:08.776Z,11.84
2023-05-02T15:01:18.451Z,11.73
2023-05-02T15:04:21.912Z,11.58
2023-05-02T15:07:25.219Z,11.47
2023-05-02T15:10:28.352Z,11.47
2023-05-02T15:13:32.716Z,11.34
2023-05-02T15:16:37.048Z,11.51
2023-05-02T15:19:40.182Z,11.38
2023-05-02T15:22:43.221Z,11.04
2023-05-02T15:25:46.350Z,11.03
2023-05-02T15:28:50.791Z,11.01
2023-05-02T15:31:54.538Z,10.97
2023-05-02T15:34:57.541Z,10.91
2023-05-02T15:38:00.691Z,11.12
2023-05-02T15:41:03.724Z,11.19
2023-05-02T15:44:08.197Z,11.27
2023-05-02T15:47:11.206Z,11.15
2023-05-02T15:50:14.720Z,10.95
2023-05-02T15:53:19.314Z,11.10
2023-05-02T15:56:22.560Z,11.18
2023-05-02T15:59:26.995Z,11.49
2023-05-02T16:02:32.445Z,11.71
2023-05-02T16:05:36.926Z,11.72
2023-05-02T16:08:40.060Z,11.72
2023-05-02T16:11:44.359Z,11.76
2023-05-02T16:14:48.800Z,11.82
2023-05-02T16:17:52.108Z,11.80
2023-05-02T16:20:56.953Z,11.90
2023-05-02T16:23:59.948Z,11.67
2023-05-02T16:27:02.963Z,11.87
2023-05-02T16:30:09.452Z,11.72
2023-05-02T16:33:12.767Z,11.97
2023-05-02T16:36:16.081Z,11.79
2023-05-02T16:39:19.123Z,11.70
2023-05-02T16:42:22.130Z,11.63
2023-05-02T16:45:26.696Z,11.69
2023-05-02T16:48:30.153Z,11.55
2023-05-02T16:51:33.171Z,11.58
2023-05-02T16:54:36.208Z,11.60
2023-05-02T16:57:39.223Z,11.60
2023-05-02T17:00:43.969Z,11.60
2023-05-02T17:03:47.085Z,11.57
2023-05-02T17:06:50.226Z,11.60
2023-05-02T17:09:53.701Z,11.66
2023-05-02T17:12:58.576Z,11.69
2023-05-02T17:16:03.465Z,11.67
2023-05-02T17:19:07.302Z,11.75
2023-05-02T17:22:10.563Z,11.94
2023-05-02T17:25:13.985Z,11.92
2023-05-02T17:28:17.156Z,11.79
2023-05-02T17:31:21.727Z,11.67
2023-05-02T17:34:28.494Z,11.67
2023-05-02T17:37:32.807Z,11.70
2023-05-02T17:40:37.456Z,11.73
2023-05-02T17:43:42.906Z,11.70
2023-05-02T17:46:47.678Z,11.63
2023-05-02T17:49:51.326Z,11.62
2023-05-02T17:52:54.489Z,11.66
2023-05-02T17:55:57.665Z,11.65
2023-05-02T17:59:00.740Z,11.69
2023-05-02T18:02:05.867Z,11.66
2023-05-02T18:05:10.586Z,11.42
2023-05-02T18:08:13.738Z,11.52
2023-05-02T18:11:18.011Z,11.45
2023-05-02T18:14:22.586Z,11.42
2023-05-02T18:17:27.048Z,11.47
2023-05-02T18:20:30.175Z,11.45
2023-05-02T18:23:36.000Z,11.47
2023-05-02T18:26:39.102Z,11.44
2023-05-02T18:29:42.340Z,11.47
2023-05-02T18:32:47.173Z,11.47
2023-05-02T18:35:50.705Z,11.41
2023-05-02T18:38:53.901Z,11.31
2023-05-02T18:41:57.132Z,11.31
2023-05-02T18:45:01.268Z,11.33
2023-05-02T18:48:07.887Z,11.30
2023-05-02T18:51:11.366Z,11.28
2023-05-02T18:54:14.746Z,11.27
2023-05-02T18:57:18.038Z,11.31
2023-05-02T19:00:24.405Z,11.28
2023-05-02T19:03:29.183Z,11.30
2023-05-02T19:06:33.353Z,11.25
2023-05-02T19:09:36.831Z,11.25
2023-05-02T19:12:40.789Z,11.29
2023-05-02T19:15:44.969Z,11.28
2023-05-02T19:18:52.359Z,11.22
2023-05-02T19:21:55.713Z,11.22
2023-05-02T19:24:59.106Z,11.22
2023-05-02T19:28:02.173Z,11.28
2023-05-02T19:31:10.322Z,11.23
2023-05-02T19:34:14.707Z,11.24
2023-05-02T19:37:17.869Z,11.23
2023-05-02T19:40:21.054Z,11.20
2023-05-02T19:43:24.172Z,11.23
2023-05-02T19:46:27.353Z,11.15
2023-05-02T19:49:31.829Z,11.20
2023-05-02T19:52:34.897Z,11.20
2023-05-02T19:55:40.080Z,11.21
2023-05-02T19:58:45.241Z,11.14
2023-05-02T20:01:48.618Z,11.09
2023-05-02T20:04:54.920Z,11.02
2023-05-02T20:07:58.032Z,10.97
2023-05-02T20:11:01.090Z,10.96
2023-05-02T20:14:04.143Z,10.91
2023-05-02T20:17:07.991Z,10.85
2023-05-02T20:20:14.016Z,10.87
2023-05-02T20:23:17.162Z,10.85
2023-05-02T20:26:21.335Z,10.87
2023-05-02T20:29:24.900Z,10.81
2023-05-02T20:32:28.162Z,10.78
2023-05-02T20:35:32.566Z,10.69
2023-05-02T20:38:35.641Z,10.68
2023-05-02T20:41:38.705Z,10.64
2023-05-02T20:44:42.038Z,10.60
2023-05-02T20:47:46.970Z,10.52
2023-05-02T20:50:55.417Z,10.45
2023-05-02T20:53:59.501Z,10.43
2023-05-02T20:57:03.592Z,10.42
2023-05-02T21:00:11.328Z,10.39
2023-05-02T21:03:14.447Z,10.37
2023-05-02T21:06:19.994Z,10.33
2023-05-02T21:09:23.219Z,10.27
2023-05-02T21:12:26.309Z,10.23
2023-05-02T21:15:29.423Z,10.18
2023-05-02T21:18:32.487Z,10.14
2023-05-02T21:21:36.906Z,10.17
2023-05-02T21:24:40.072Z,10.11
2023-05-02T21:27:43.188Z,10.14
2023-05-02T21:30:46.318Z,10.05
2023-05-02T21:33:49.331Z,9.98
2023-05-02T21:36:53.704Z,9.93
2023-05-02T21:39:57.051Z,9.95
2023-05-02T21:43:00.159Z,9.88
2023-05-02T21:46:03.195Z,9.82
2023-05-02T21:49:06.487Z,9.82
2023-05-02T21:52:10.915Z,9.81
2023-05-02T21:55:13.923Z,9.82
2023-05-02T21:58:16.999Z,9.83
2023-05-02T22:01:20.223Z,9.76
2023-05-02T22:04:23.845Z,9.74
2023-05-02T22:07:28.295Z,9.69
2023-05-02T22:10:32.185Z,9.72
2023-05-02T22:13:35.491Z,9.73
2023-05-02T22:16:40.001Z,9.67
2023-05-02T22:19:43.069Z,9.69
2023-05-02T22:22:47.346Z,9.69
2023-05-02T22:25:50.913Z,9.69
2023-05-02T22:28:53.904Z,9.69
2023-05-02T22:31:57.048Z,9.67
2023-05-02T22:35:00.226Z,9.71
2023-05-02T22:38:09.809Z,9.68
2023-05-02T22:41:12.839Z,9.67
2023-05-02T22:44:16.074Z,9.67
2023-05-02T22:47:19.395Z,9.66
2023-05-02T22:50:22.506Z,9.62
2023-05-02T22:53:26.868Z,9.58
2023-05-02T22:56:30.000Z,9.62
2023-05-02T22:59:33.112Z,9.64
2023-05-02T23:02:36.406Z,9.63
2023-05-02T23:05:40.028Z,9.59
2023-05-02T23:08:44.443Z,9.61
2023-05-02T23:11:47.523Z,9.57
2023-05-02T23:14:50.716Z,9.56
2023-05-02T23:17:53.727Z,9.54
2023-05-02T23:20:56.897Z,9.54
2023-05-02T23:24:01.293Z,9.55
2023-05-02T23:27:06.233Z,9.54
2023-05-02T23:30:10.579Z,9.49
2023-05-02T23:33:13.794Z,9.45
2023-05-02T23:36:17.010Z,9.45
2023-05-02T23:39:21.840Z,9.41
2023-05-02T23:42:25.124Z,9.40
2023-05-02T23:45:28.296Z,9.40
2023-05-02T23:48:31.466Z,9.39
2023-05-02T23:51:34.492Z,9.37
2023-05-02T23:54:38.963Z,9.36
2023-05-02T23:57:42.567Z,9.36
